createdAt,value
2016-07-28T00:00:10.910Z,1011.09
2016-07-28T00:01:10.909Z,1011.09
2016-07-28T00:02:10.908Z,1011.12
2016-07-28T00:03:10.906Z,1011.06
2016-07-28T00:04:10.903Z,1011.04
2016-07-28T00:05:10.917Z,1011.06
2016-07-28T00:06:10.902Z,1011.08
2016-07-28T00:07:10.903Z,1011.1
2016-07-28T00:08:11.357Z,1011.09
2016-07-28T00:10:10.899Z,1011.14
2016-07-28T00:11:10.896Z,1011.19
2016-07-28T00:12:10.895Z,1011.19
2016-07-28T00:13:10.897Z,1011.16
2016-07-28T00:14:10.893Z,1011.17
2016-07-28T00:15:10.893Z,1011.15
2016-07-28T00:16:10.893Z,1011.14
2016-07-28T00:17:10.890Z,1011.13
2016-07-28T00:18:10.889Z,1011.14
2016-07-28T00:19:10.891Z,1011.14
2016-07-28T00:20:10.887Z,1011.14
2016-07-28T00:21:10.887Z,1011.16
2016-07-28T00:22:10.886Z,1011.13
2016-07-28T00:23:10.884Z,1011.16
2016-07-28T00:24:10.886Z,1011.16
2016-07-28T00:25:10.885Z,1011.15
2016-07-28T00:26:10.884Z,1011.17
2016-07-28T00:27:10.883Z,1011.18
2016-07-28T00:28:10.880Z,1011.16
2016-07-28T00:29:10.882Z,1011.19
2016-07-28T00:30:10.879Z,1011.25
2016-07-28T00:31:10.877Z,1011.24
2016-07-28T00:33:10.876Z,1011.22
2016-07-28T00:34:10.878Z,1011.21
2016-07-28T00:35:11.475Z,1011.2
2016-07-28T00:36:10.873Z,1011.23
2016-07-28T00:37:10.873Z,1011.22
2016-07-28T00:38:11.123Z,1011.16
2016-07-28T00:39:10.870Z,1011.18
2016-07-28T00:40:10.873Z,1011.17
2016-07-28T00:41:10.869Z,1011.19
2016-07-28T00:42:10.868Z,1011.15
2016-07-28T00:43:10.869Z,1011.15
2016-07-28T00:45:10.868Z,1011.2
2016-07-28T00:46:10.866Z,1011.19
2016-07-28T00:47:10.866Z,1011.2
2016-07-28T00:48:10.865Z,1011.24
2016-07-28T00:49:10.864Z,1011.22
2016-07-28T00:50:10.861Z,1011.2
2016-07-28T00:51:10.862Z,1011.21
2016-07-28T00:52:10.860Z,1011.19
2016-07-28T00:53:10.861Z,1011.16
2016-07-28T00:54:10.861Z,1011.17
2016-07-28T00:55:10.860Z,1011.18
2016-07-28T00:56:10.857Z,1011.18
2016-07-28T00:57:10.857Z,1011.16
2016-07-28T00:58:10.855Z,1011.18
2016-07-28T00:59:10.857Z,1011.14
2016-07-28T01:00:10.855Z,1011.15
2016-07-28T01:01:10.855Z,1011.13
2016-07-28T01:02:10.852Z,1011.13
2016-07-28T01:03:10.854Z,1011.15
2016-07-28T01:04:10.853Z,1011.16
2016-07-28T01:05:10.851Z,1011.15
2016-07-28T01:06:10.851Z,1011.17
2016-07-28T01:07:10.850Z,1011.18
2016-07-28T01:08:10.847Z,1011.19
2016-07-28T01:09:10.849Z,1011.21
2016-07-28T01:10:10.846Z,1011.24
2016-07-28T01:11:10.846Z,1011.26
2016-07-28T01:12:10.847Z,1011.27
2016-07-28T01:13:10.844Z,1011.22
2016-07-28T01:14:10.843Z,1011.23
2016-07-28T01:15:10.844Z,1011.24
2016-07-28T01:16:10.841Z,1011.22
2016-07-28T01:17:10.843Z,1011.17
2016-07-28T01:18:10.842Z,1011.18
2016-07-28T01:19:10.839Z,1011.14
2016-07-28T01:20:10.840Z,1011.17
2016-07-28T01:21:10.838Z,1011.17
2016-07-28T01:22:10.839Z,1011.14
2016-07-28T01:23:10.836Z,1011.16
2016-07-28T01:24:10.835Z,1011.17
2016-07-28T01:25:10.837Z,1011.19
2016-07-28T01:26:10.833Z,1011.19
2016-07-28T01:27:10.835Z,1011.21
2016-07-28T01:28:10.832Z,1011.17
2016-07-28T01:29:10.834Z,1011.18
2016-07-28T01:30:11.435Z,1011.15
2016-07-28T01:31:10.830Z,1011.12
2016-07-28T01:32:10.830Z,1011.12
2016-07-28T01:33:10.829Z,1011.13
2016-07-28T01:34:10.832Z,1011.1
2016-07-28T01:35:11.446Z,1011.1
2016-07-28T01:36:10.830Z,1011.12
2016-07-28T01:37:10.826Z,1011.09
2016-07-28T01:38:10.825Z,1011.1
2016-07-28T01:39:10.825Z,1011.13
2016-07-28T01:40:10.827Z,1011.1
2016-07-28T01:41:10.826Z,1011.12
2016-07-28T01:42:10.822Z,1011.15
2016-07-28T01:43:10.822Z,1011.15
2016-07-28T01:44:10.822Z,1011.09
2016-07-28T01:45:10.823Z,1011.1
2016-07-28T01:46:10.823Z,1011.08
2016-07-28T01:47:10.819Z,1011.09
2016-07-28T01:48:10.817Z,1011.11
2016-07-28T01:49:10.819Z,1011.1
2016-07-28T01:50:10.817Z,1011.1
2016-07-28T01:51:10.816Z,1011.13
2016-07-28T01:52:10.814Z,1011.16
2016-07-28T01:53:10.812Z,1011.21
2016-07-28T01:54:11.465Z,1011.15
2016-07-28T01:55:10.811Z,1011.15
2016-07-28T01:56:10.813Z,1011.12
2016-07-28T01:57:10.810Z,1011.08
2016-07-28T01:58:11.362Z,1011.07
2016-07-28T01:59:10.807Z,1011.07
2016-07-28T02:00:10.810Z,1011.06
2016-07-28T02:01:10.807Z,1011.09
2016-07-28T02:02:10.809Z,1011.05
2016-07-28T02:03:10.808Z,1011.09
2016-07-28T02:04:10.809Z,1011.06
2016-07-28T02:05:11.003Z,1011.14
2016-07-28T02:06:10.803Z,1011.12
2016-07-28T02:07:10.801Z,1011.15
2016-07-28T02:08:10.803Z,1011.13
2016-07-28T02:09:10.800Z,1011.12
2016-07-28T02:10:10.799Z,1011.12
2016-07-28T02:11:10.799Z,1011.15
2016-07-28T02:12:10.800Z,1011.14
2016-07-28T02:13:10.796Z,1011.14
2016-07-28T02:14:10.796Z,1011.12
2016-07-28T02:15:10.795Z,1011.12
2016-07-28T02:16:10.795Z,1011.11
2016-07-28T02:17:10.796Z,1011.1
2016-07-28T02:18:10.792Z,1011.13
2016-07-28T02:19:10.791Z,1011.13
2016-07-28T02:20:10.790Z,1011.08
2016-07-28T02:21:10.791Z,1011.09
2016-07-28T02:22:10.791Z,1011.12
2016-07-28T02:23:10.790Z,1011.1
2016-07-28T02:24:10.790Z,1011.12
2016-07-28T02:25:10.798Z,1011.12
2016-07-28T02:26:10.789Z,1011.13
2016-07-28T02:27:10.787Z,1011.14
2016-07-28T02:28:10.785Z,1011.13
2016-07-28T02:29:10.784Z,1011.16
2016-07-28T02:30:10.782Z,1011.15
2016-07-28T02:31:10.784Z,1011.17
2016-07-28T02:32:10.784Z,1011.2
2016-07-28T02:33:10.781Z,1011.21
2016-07-28T02:34:10.780Z,1011.2
2016-07-28T02:35:10.779Z,1011.23
2016-07-28T02:36:10.780Z,1011.25
2016-07-28T02:37:10.778Z,1011.27
2016-07-28T02:38:10.777Z,1011.26
2016-07-28T02:39:10.778Z,1011.24
2016-07-28T02:40:10.778Z,1011.24
2016-07-28T02:41:10.776Z,1011.23
2016-07-28T02:42:10.775Z,1011.25
2016-07-28T02:43:10.773Z,1011.29
2016-07-28T02:44:10.775Z,1011.3
2016-07-28T02:45:10.772Z,1011.32
2016-07-28T02:46:10.771Z,1011.31
2016-07-28T02:47:10.772Z,1011.31
2016-07-28T02:48:10.769Z,1011.33
2016-07-28T02:49:11.577Z,1011.3
2016-07-28T02:50:10.775Z,1011.28
2016-07-28T02:51:10.837Z,1011.28
2016-07-28T02:52:10.769Z,1011.27
2016-07-28T02:53:10.767Z,1011.26
2016-07-28T02:54:11.584Z,1011.28
2016-07-28T02:55:11.386Z,1011.27
2016-07-28T02:56:10.767Z,1011.26
2016-07-28T02:57:11.258Z,1011.27
2016-07-28T02:58:11.209Z,1011.29
2016-07-28T02:59:10.764Z,1011.27
2016-07-28T03:00:10.762Z,1011.3
2016-07-28T03:01:10.759Z,1011.3
2016-07-28T03:02:10.761Z,1011.35
2016-07-28T03:03:10.759Z,1011.34
2016-07-28T03:04:10.760Z,1011.28
2016-07-28T03:05:10.756Z,1011.32
2016-07-28T03:06:10.758Z,1011.29
2016-07-28T03:07:10.757Z,1011.33
2016-07-28T03:08:10.754Z,1011.33
2016-07-28T03:09:10.754Z,1011.35
2016-07-28T03:10:10.756Z,1011.34
2016-07-28T03:11:10.753Z,1011.35
2016-07-28T03:12:10.752Z,1011.35
2016-07-28T03:13:10.753Z,1011.37
2016-07-28T03:14:10.751Z,1011.38
2016-07-28T03:15:10.752Z,1011.41
2016-07-28T03:16:10.749Z,1011.42
2016-07-28T03:19:10.749Z,1011.46
2016-07-28T03:20:10.746Z,1011.48
2016-07-28T03:21:10.744Z,1011.48
2016-07-28T03:22:10.745Z,1011.45
2016-07-28T03:23:10.742Z,1011.45
2016-07-28T03:24:10.742Z,1011.45
2016-07-28T03:25:10.741Z,1011.45
2016-07-28T03:26:10.743Z,1011.44
2016-07-28T03:27:10.739Z,1011.45
2016-07-28T03:28:10.739Z,1011.46
2016-07-28T03:29:10.738Z,1011.45
2016-07-28T03:30:10.737Z,1011.46
2016-07-28T03:31:10.737Z,1011.48
2016-07-28T03:32:10.737Z,1011.43
2016-07-28T03:33:10.737Z,1011.44
2016-07-28T03:34:10.734Z,1011.41
2016-07-28T03:35:10.734Z,1011.45
2016-07-28T03:36:10.733Z,1011.41
2016-07-28T03:37:10.732Z,1011.43
2016-07-28T03:38:10.733Z,1011.41
2016-07-28T03:39:10.729Z,1011.4
2016-07-28T03:40:10.731Z,1011.43
2016-07-28T03:41:10.728Z,1011.41
2016-07-28T03:42:10.728Z,1011.38
2016-07-28T03:43:10.730Z,1011.41
2016-07-28T03:44:10.728Z,1011.44
2016-07-28T03:45:10.727Z,1011.45
2016-07-28T03:46:10.728Z,1011.45
2016-07-28T03:47:10.724Z,1011.41
2016-07-28T03:48:10.726Z,1011.46
2016-07-28T03:49:10.722Z,1011.47
2016-07-28T03:50:10.722Z,1011.49
2016-07-28T03:51:10.721Z,1011.49
2016-07-28T03:52:10.720Z,1011.48
2016-07-28T03:53:10.719Z,1011.55
2016-07-28T03:54:10.720Z,1011.54
2016-07-28T03:55:10.719Z,1011.51
2016-07-28T03:56:10.718Z,1011.55
2016-07-28T03:57:10.718Z,1011.53
2016-07-28T03:58:10.717Z,1011.51
2016-07-28T03:59:10.715Z,1011.53
2016-07-28T04:00:10.717Z,1011.51
2016-07-28T04:01:10.717Z,1011.5
2016-07-28T04:02:10.714Z,1011.51
2016-07-28T04:03:10.711Z,1011.54
2016-07-28T04:04:10.713Z,1011.5
2016-07-28T04:05:10.711Z,1011.51
2016-07-28T04:06:10.711Z,1011.52
2016-07-28T04:07:10.711Z,1011.57
2016-07-28T04:08:10.709Z,1011.57
2016-07-28T04:09:10.710Z,1011.57
2016-07-28T04:10:10.708Z,1011.58
2016-07-28T04:11:10.707Z,1011.63
2016-07-28T04:12:10.706Z,1011.66
2016-07-28T04:13:10.707Z,1011.65
2016-07-28T04:14:10.705Z,1011.67
2016-07-28T04:15:10.704Z,1011.66
2016-07-28T04:16:10.704Z,1011.67
2016-07-28T04:17:10.705Z,1011.67
2016-07-28T04:18:10.703Z,1011.71
2016-07-28T04:19:10.705Z,1011.69
2016-07-28T04:20:10.706Z,1011.68
2016-07-28T04:21:10.702Z,1011.64
2016-07-28T04:22:10.701Z,1011.6
2016-07-28T04:23:10.701Z,1011.61
2016-07-28T04:24:10.701Z,1011.64
2016-07-28T04:25:10.700Z,1011.6
2016-07-28T04:26:11.401Z,1011.6
2016-07-28T04:28:10.700Z,1011.65
2016-07-28T04:29:10.700Z,1011.67
2016-07-28T04:30:10.699Z,1011.65
2016-07-28T04:31:10.700Z,1011.64
2016-07-28T04:32:10.699Z,1011.68
2016-07-28T04:33:10.697Z,1011.65
2016-07-28T04:34:10.698Z,1011.63
2016-07-28T04:35:10.698Z,1011.69
2016-07-28T04:36:11.149Z,1011.71
2016-07-28T04:37:10.698Z,1011.67
2016-07-28T04:38:10.697Z,1011.72
2016-07-28T04:39:10.701Z,1011.73
2016-07-28T04:40:10.697Z,1011.71
2016-07-28T04:41:10.698Z,1011.76
2016-07-28T04:42:10.698Z,1011.7
2016-07-28T04:43:10.702Z,1011.71
2016-07-28T04:44:10.698Z,1011.77
2016-07-28T04:45:10.699Z,1011.75
2016-07-28T04:46:10.701Z,1011.79
2016-07-28T04:47:10.700Z,1011.82
2016-07-28T04:48:10.700Z,1011.91
2016-07-28T04:49:10.705Z,1011.82
2016-07-28T04:50:10.702Z,1011.83
2016-07-28T04:51:10.702Z,1011.82
2016-07-28T04:52:10.703Z,1011.81
2016-07-28T04:53:10.701Z,1011.82
2016-07-28T04:54:10.702Z,1011.81
2016-07-28T04:55:10.703Z,1011.83
2016-07-28T04:56:10.705Z,1011.84
2016-07-28T04:57:10.706Z,1011.85
2016-07-28T04:58:10.709Z,1011.81
2016-07-28T04:59:10.707Z,1011.81
2016-07-28T05:00:10.708Z,1011.8
2016-07-28T05:01:10.713Z,1011.9
2016-07-28T05:02:10.712Z,1011.86
2016-07-28T05:04:10.716Z,1011.91
2016-07-28T05:05:10.718Z,1011.88
2016-07-28T05:06:10.719Z,1011.92
2016-07-28T05:07:10.721Z,1011.87
2016-07-28T05:08:10.726Z,1011.87
2016-07-28T05:09:10.728Z,1011.92
2016-07-28T05:10:10.730Z,1011.96
2016-07-28T05:11:10.733Z,1011.97
2016-07-28T05:12:10.736Z,1011.96
2016-07-28T05:13:11.345Z,1011.99
2016-07-28T05:14:10.740Z,1011.91
2016-07-28T05:15:10.744Z,1011.97
2016-07-28T05:16:10.747Z,1011.97
2016-07-28T05:17:10.752Z,1011.93
2016-07-28T05:18:11.155Z,1011.98
2016-07-28T05:19:10.760Z,1012.01
2016-07-28T05:20:10.763Z,1012.01
2016-07-28T05:21:10.770Z,1012.05
2016-07-28T05:22:10.772Z,1012.06
2016-07-28T05:23:10.778Z,1012.03
2016-07-28T05:24:10.783Z,1012.01
2016-07-28T05:25:10.787Z,1012.01
2016-07-28T05:26:10.792Z,1012.03
2016-07-28T05:27:10.800Z,1012.01
2016-07-28T05:28:10.803Z,1012.03
2016-07-28T05:29:10.811Z,1012.05
2016-07-28T05:30:10.815Z,1012.07
2016-07-28T05:31:10.825Z,1012.05
2016-07-28T05:32:10.829Z,1012.07
2016-07-28T05:33:10.835Z,1012.11
2016-07-28T05:34:10.845Z,1012.11
2016-07-28T05:35:10.852Z,1012.15
2016-07-28T05:36:10.860Z,1012.14
2016-07-28T05:37:10.868Z,1012.15
2016-07-28T05:38:10.872Z,1012.17
2016-07-28T05:39:10.881Z,1012.14
2016-07-28T05:40:10.887Z,1012.16
2016-07-28T05:41:10.899Z,1012.13
2016-07-28T05:42:10.904Z,1012.19
2016-07-28T05:43:10.913Z,1012.17
2016-07-28T05:44:10.923Z,1012.19
2016-07-28T05:45:11.134Z,1012.2
2016-07-28T05:46:10.940Z,1012.19
2016-07-28T05:47:10.950Z,1012.22
2016-07-28T05:48:11.410Z,1012.26
2016-07-28T05:49:10.967Z,1012.3
2016-07-28T05:51:10.990Z,1012.3
2016-07-28T05:52:10.995Z,1012.32
2016-07-28T05:53:11.007Z,1012.36
2016-07-28T05:54:11.023Z,1012.35
2016-07-28T05:55:11.025Z,1012.37
2016-07-28T05:56:11.038Z,1012.37
2016-07-28T05:57:11.598Z,1012.38
2016-07-28T05:58:11.057Z,1012.38
2016-07-28T05:59:11.567Z,1012.39
2016-07-28T06:00:11.080Z,1012.4
2016-07-28T06:01:11.087Z,1012.37
2016-07-28T06:02:11.100Z,1012.4
2016-07-28T06:03:11.110Z,1012.39
2016-07-28T06:04:11.124Z,1012.47
2016-07-28T06:05:11.133Z,1012.45
2016-07-28T06:06:11.146Z,1012.54
2016-07-28T06:07:11.160Z,1012.56
2016-07-28T06:08:11.168Z,1012.58
2016-07-28T06:09:11.182Z,1012.6
2016-07-28T06:10:11.194Z,1012.59
2016-07-28T06:11:11.204Z,1012.6
2016-07-28T06:12:11.217Z,1012.61
2016-07-28T06:13:11.232Z,1012.59
2016-07-28T06:14:11.243Z,1012.59
2016-07-28T06:15:11.254Z,1012.57
2016-07-28T06:16:11.270Z,1012.56
2016-07-28T06:17:11.279Z,1012.53
2016-07-28T06:18:11.295Z,1012.59
2016-07-28T06:19:11.306Z,1012.58
2016-07-28T06:20:11.322Z,1012.59
2016-07-28T06:21:11.335Z,1012.6
2016-07-28T06:22:11.739Z,1012.61
2016-07-28T06:23:11.359Z,1012.58
2016-07-28T06:24:11.371Z,1012.61
2016-07-28T06:25:11.386Z,1012.61
2016-07-28T06:26:11.401Z,1012.6
2016-07-28T06:27:11.415Z,1012.6
2016-07-28T06:28:11.429Z,1012.65
2016-07-28T06:29:11.441Z,1012.64
2016-07-28T06:31:11.469Z,1012.66
2016-07-28T06:32:11.483Z,1012.69
2016-07-28T06:33:11.497Z,1012.62
2016-07-28T06:34:11.511Z,1012.65
2016-07-28T06:35:11.527Z,1012.69
2016-07-28T06:36:11.544Z,1012.71
2016-07-28T06:37:11.557Z,1012.71
2016-07-28T06:38:11.572Z,1012.76
2016-07-28T06:39:11.587Z,1012.73
2016-07-28T06:40:11.602Z,1012.77
2016-07-28T06:41:11.618Z,1012.76
2016-07-28T06:42:11.634Z,1012.79
2016-07-28T06:43:11.653Z,1012.79
2016-07-28T06:44:11.665Z,1012.83
2016-07-28T06:45:11.693Z,1012.82
2016-07-28T06:46:11.699Z,1012.82
2016-07-28T06:47:11.717Z,1012.83
2016-07-28T06:48:11.731Z,1012.85
2016-07-28T06:49:11.748Z,1012.84
2016-07-28T06:50:11.766Z,1012.88
2016-07-28T06:51:11.781Z,1012.86
2016-07-28T06:52:11.798Z,1012.85
2016-07-28T06:53:11.819Z,1012.9
2016-07-28T06:54:11.834Z,1012.94
2016-07-28T06:55:11.850Z,1012.94
2016-07-28T06:56:11.868Z,1012.96
2016-07-28T06:57:11.886Z,1012.96
2016-07-28T06:58:11.904Z,1012.97
2016-07-28T06:59:11.921Z,1012.98
2016-07-28T07:00:11.939Z,1012.96
2016-07-28T07:01:11.957Z,1013
2016-07-28T07:02:12.876Z,1012.99
2016-07-28T07:03:11.995Z,1013
2016-07-28T07:04:12.015Z,1013.04
2016-07-28T07:05:12.033Z,1013.04
2016-07-28T07:06:12.051Z,1013.09
2016-07-28T07:07:12.571Z,1013.09
2016-07-28T07:08:12.085Z,1013.14
2016-07-28T07:09:12.105Z,1013.15
2016-07-28T07:10:12.125Z,1013.13
2016-07-28T07:11:12.143Z,1013.14
2016-07-28T07:12:12.161Z,1013.2
2016-07-28T07:13:12.179Z,1013.22
2016-07-28T07:14:12.199Z,1013.24
2016-07-28T07:15:12.217Z,1013.24
2016-07-28T07:16:12.237Z,1013.26
2016-07-28T07:17:12.263Z,1013.23
2016-07-28T07:18:12.275Z,1013.21
2016-07-28T07:19:12.297Z,1013.23
2016-07-28T07:20:12.314Z,1013.33
2016-07-28T07:21:12.333Z,1013.31
2016-07-28T07:22:12.355Z,1013.34
2016-07-28T07:23:12.375Z,1013.32
2016-07-28T07:24:12.391Z,1013.34
2016-07-28T07:25:12.412Z,1013.37
2016-07-28T07:26:12.433Z,1013.37
2016-07-28T07:27:12.453Z,1013.36
2016-07-28T07:28:12.474Z,1013.35
2016-07-28T07:29:12.494Z,1013.38
2016-07-28T07:30:12.509Z,1013.34
2016-07-28T07:31:12.532Z,1013.42
2016-07-28T07:32:12.548Z,1013.38
2016-07-28T07:33:12.572Z,1013.43
2016-07-28T07:34:12.592Z,1013.53
2016-07-28T07:35:12.607Z,1013.61
2016-07-28T07:36:12.631Z,1013.76
2016-07-28T07:37:12.648Z,1013.88
2016-07-28T07:38:12.667Z,1013.94
2016-07-28T07:39:13.809Z,1013.96
2016-07-28T07:40:12.709Z,1013.96
2016-07-28T07:41:12.729Z,1013.9
2016-07-28T07:42:12.748Z,1013.89
2016-07-28T07:43:12.771Z,1013.75
2016-07-28T07:44:12.791Z,1013.8
2016-07-28T07:45:12.808Z,1013.77
2016-07-28T07:46:12.827Z,1013.79
2016-07-28T07:47:12.847Z,1013.74
2016-07-28T07:48:12.871Z,1013.08
2016-07-28T07:50:13.826Z,1013.19
2016-07-28T07:51:12.930Z,1013.8
2016-07-28T07:52:12.950Z,1013.4
2016-07-28T07:53:12.971Z,1013.37
2016-07-28T07:54:13.129Z,1013.83
2016-07-28T07:55:13.007Z,1013.25
2016-07-28T07:56:13.025Z,1013.3
2016-07-28T07:57:13.044Z,1013.13
2016-07-28T07:58:13.063Z,1013.79
2016-07-28T07:59:13.081Z,1013.09
2016-07-28T08:00:13.101Z,1013.13
2016-07-28T08:01:13.115Z,1013.09
2016-07-28T08:02:13.135Z,1013.06
2016-07-28T08:03:13.153Z,1013.66
2016-07-28T08:04:13.170Z,1013.06
2016-07-28T08:05:13.183Z,1013.17
2016-07-28T08:06:13.202Z,1014.59
2016-07-28T08:07:13.219Z,1014.47
2016-07-28T08:08:13.231Z,1014.49
2016-07-28T08:09:13.246Z,1013.1
2016-07-28T08:10:13.263Z,1013.13
2016-07-28T08:11:13.279Z,1013.04
2016-07-28T08:12:13.296Z,1013.22
2016-07-28T08:13:13.311Z,1013.18
2016-07-28T08:14:13.323Z,1013.33
2016-07-28T08:15:13.337Z,1013.35
2016-07-28T08:16:13.354Z,1013.11
2016-07-28T08:17:13.366Z,1014.24
2016-07-28T08:18:13.380Z,1014.34
2016-07-28T08:19:13.394Z,1014.27
2016-07-28T08:20:13.409Z,1013.25
2016-07-28T08:22:15.190Z,1013.05
2016-07-28T08:23:13.450Z,1013.04
2016-07-28T08:24:13.461Z,1013.02
2016-07-28T08:25:13.478Z,1013.01
2016-07-28T08:26:13.490Z,1013.12
2016-07-28T08:27:13.502Z,1013.09
2016-07-28T08:28:13.514Z,1013.85
2016-07-28T08:29:13.525Z,1013.86
2016-07-28T08:30:14.088Z,1013.09
2016-07-28T08:31:14.351Z,1013.76
2016-07-28T08:32:13.562Z,1013.45
2016-07-28T08:33:13.577Z,1012.97
2016-07-28T08:34:13.587Z,1013.27
2016-07-28T08:35:13.599Z,1013.07
2016-07-28T08:36:13.611Z,1012.99
2016-07-28T08:37:13.623Z,1012.88
2016-07-28T08:38:13.635Z,1013.14
2016-07-28T08:39:13.648Z,1013.16
2016-07-28T08:40:13.657Z,1013.14
2016-07-28T08:41:13.668Z,1013.23
2016-07-28T08:42:13.678Z,1013.7
2016-07-28T08:44:13.704Z,1013.33
2016-07-28T08:45:13.711Z,1013.81
2016-07-28T08:46:13.726Z,1013.87
2016-07-28T08:47:13.735Z,1013.79
2016-07-28T08:48:13.747Z,1013.68
2016-07-28T08:49:13.761Z,1013.54
2016-07-28T08:50:13.771Z,1013.42
2016-07-28T08:51:13.785Z,1013.19
2016-07-28T08:52:13.798Z,1013.11
2016-07-28T08:53:13.809Z,1013.06
2016-07-28T08:54:13.820Z,1013.12
2016-07-28T08:55:13.837Z,1013.08
2016-07-28T08:56:13.845Z,1012.99
2016-07-28T08:57:13.860Z,1012.94
2016-07-28T08:59:14.973Z,1013.15
2016-07-28T09:00:13.896Z,1013.02
2016-07-28T09:01:14.570Z,1012.93
2016-07-28T09:02:14.423Z,1012.84
2016-07-28T09:03:13.929Z,1012.81
2016-07-28T09:04:14.295Z,1012.8
2016-07-28T09:05:13.951Z,1012.8
2016-07-28T09:06:13.966Z,1012.7
2016-07-28T09:07:14.110Z,1012.76
2016-07-28T09:08:14.334Z,1012.86
2016-07-28T09:09:13.999Z,1012.78
2016-07-28T09:10:14.901Z,1012.67
2016-07-28T09:11:14.020Z,1012.76
2016-07-28T09:12:14.031Z,1012.76
2016-07-28T09:13:14.039Z,1012.9
2016-07-28T09:14:14.048Z,1012.96
2016-07-28T09:15:14.061Z,1012.99
2016-07-28T09:16:14.072Z,1013
2016-07-28T09:17:14.083Z,1012.92
2016-07-28T09:18:14.091Z,1012.89
2016-07-28T09:19:14.100Z,1012.73
2016-07-28T09:20:14.109Z,1012.7
2016-07-28T09:21:14.121Z,1012.67
2016-07-28T09:22:14.132Z,1012.73
2016-07-28T09:23:14.142Z,1012.8
2016-07-28T09:24:14.150Z,1012.77
2016-07-28T09:25:14.157Z,1012.81
2016-07-28T09:26:14.169Z,1012.88
2016-07-28T09:27:14.176Z,1012.91
2016-07-28T09:28:14.185Z,1012.88
2016-07-28T09:29:14.194Z,1012.84
2016-07-28T09:30:14.205Z,1012.83
2016-07-28T09:31:14.213Z,1012.81
2016-07-28T09:32:14.222Z,1012.75
2016-07-28T09:33:14.233Z,1012.85
2016-07-28T09:34:14.240Z,1012.8
2016-07-28T09:35:14.249Z,1012.74
2016-07-28T09:36:14.258Z,1012.73
2016-07-28T09:37:14.266Z,1012.75
2016-07-28T09:38:14.278Z,1012.76
2016-07-28T09:39:14.635Z,1012.88
2016-07-28T09:40:14.294Z,1012.96
2016-07-28T09:41:14.405Z,1013.07
2016-07-28T09:42:14.312Z,1013.05
2016-07-28T09:43:14.771Z,1013.11
2016-07-28T09:44:14.329Z,1013.09
2016-07-28T09:45:14.334Z,1013.17
2016-07-28T09:46:14.347Z,1013.13
2016-07-28T09:47:14.352Z,1012.93
2016-07-28T09:49:14.372Z,1012.99
2016-07-28T09:50:14.630Z,1013.06
2016-07-28T09:51:14.389Z,1012.86
2016-07-28T09:52:14.397Z,1012.69
2016-07-28T09:53:14.404Z,1012.7
2016-07-28T09:54:14.415Z,1012.73
2016-07-28T09:55:14.423Z,1012.71
2016-07-28T09:56:14.432Z,1012.81
2016-07-28T09:57:14.441Z,1012.93
2016-07-28T09:58:14.446Z,1013.01
2016-07-28T09:59:14.458Z,1012.98
2016-07-28T10:00:14.467Z,1012.92
2016-07-28T10:01:14.472Z,1012.87
2016-07-28T10:02:14.484Z,1012.97
2016-07-28T10:03:14.489Z,1013.08
2016-07-28T10:04:14.501Z,1013.02
2016-07-28T10:05:14.510Z,1013.06
2016-07-28T10:06:14.515Z,1012.98
2016-07-28T10:07:14.525Z,1012.87
2016-07-28T10:08:14.536Z,1012.75
2016-07-28T10:09:14.544Z,1012.85
2016-07-28T10:10:14.550Z,1012.98
2016-07-28T10:11:14.560Z,1012.92
2016-07-28T10:12:14.570Z,1012.75
2016-07-28T10:13:14.577Z,1012.65
2016-07-28T10:14:14.588Z,1012.65
2016-07-28T10:15:14.598Z,1012.84
2016-07-28T10:17:14.612Z,1012.88
2016-07-28T10:18:14.621Z,1013.03
2016-07-28T10:19:14.632Z,1013.04
2016-07-28T10:20:14.640Z,1013.07
2016-07-28T10:21:14.650Z,1012.99
2016-07-28T10:22:14.656Z,1012.81
2016-07-28T10:23:14.903Z,1012.66
2016-07-28T10:24:14.674Z,1012.67
2016-07-28T10:25:14.701Z,1012.89
2016-07-28T10:26:15.817Z,1012.93
2016-07-28T10:27:14.700Z,1012.67
2016-07-28T10:28:14.713Z,1012.47
2016-07-28T10:29:14.720Z,1012.44
2016-07-28T10:30:14.728Z,1012.41
2016-07-28T10:31:14.737Z,1012.45
2016-07-28T10:33:14.760Z,1012.42
2016-07-28T10:34:14.763Z,1012.36
2016-07-28T10:35:14.774Z,1012.37
2016-07-28T10:36:14.780Z,1012.37
2016-07-28T10:37:14.791Z,1012.39
2016-07-28T10:38:14.803Z,1012.44
2016-07-28T10:39:14.808Z,1012.46
2016-07-28T10:40:14.815Z,1012.45
2016-07-28T10:41:14.823Z,1012.47
2016-07-28T10:42:14.831Z,1012.45
2016-07-28T10:43:14.844Z,1012.54
2016-07-28T10:44:14.847Z,1012.54
2016-07-28T10:45:14.855Z,1012.51
2016-07-28T10:46:14.862Z,1012.42
2016-07-28T10:47:14.872Z,1012.46
2016-07-28T10:48:14.881Z,1012.4
2016-07-28T10:49:14.885Z,1012.48
2016-07-28T10:50:14.893Z,1012.44
2016-07-28T10:51:15.002Z,1012.49
2016-07-28T10:52:14.907Z,1012.56
2016-07-28T10:53:14.914Z,1012.57
2016-07-28T10:54:14.924Z,1012.69
2016-07-28T10:55:14.930Z,1012.72
2016-07-28T10:56:14.938Z,1012.77
2016-07-28T10:58:14.952Z,1012.98
2016-07-28T10:59:14.959Z,1013.02
2016-07-28T11:00:14.964Z,1013.05
2016-07-28T11:01:14.972Z,1013.03
2016-07-28T11:02:14.982Z,1013.04
2016-07-28T11:03:14.985Z,1012.92
2016-07-28T11:04:14.995Z,1012.91
2016-07-28T11:05:15.000Z,1012.69
2016-07-28T11:06:16.061Z,1012.73
2016-07-28T11:07:15.015Z,1012.7
2016-07-28T11:08:15.022Z,1012.72
2016-07-28T11:09:15.031Z,1012.46
2016-07-28T11:10:15.038Z,1012.44
2016-07-28T11:11:15.042Z,1012.43
2016-07-28T11:12:15.052Z,1012.47
2016-07-28T11:13:15.059Z,1012.51
2016-07-28T11:14:15.165Z,1012.57
2016-07-28T11:15:15.071Z,1012.68
2016-07-28T11:16:15.080Z,1012.75
2016-07-28T11:17:15.088Z,1012.77
2016-07-28T11:18:15.095Z,1012.73
2016-07-28T11:19:15.100Z,1012.71
2016-07-28T11:20:15.108Z,1012.69
2016-07-28T11:21:15.116Z,1012.69
2016-07-28T11:22:15.124Z,1012.66
2016-07-28T11:23:15.128Z,1012.64
2016-07-28T11:24:15.138Z,1012.63
2016-07-28T11:25:15.143Z,1012.63
2016-07-28T11:26:15.151Z,1012.62
2016-07-28T11:27:15.158Z,1012.63
2016-07-28T11:28:15.166Z,1012.66
2016-07-28T11:29:15.176Z,1012.63
2016-07-28T11:30:15.179Z,1012.64
2016-07-28T11:31:15.187Z,1012.65
2016-07-28T11:32:15.191Z,1012.68
2016-07-28T11:33:15.197Z,1012.72
2016-07-28T11:34:16.811Z,1012.81
2016-07-28T11:35:15.213Z,1012.83
2016-07-28T11:36:15.674Z,1012.83
2016-07-28T11:37:15.230Z,1012.84
2016-07-28T11:38:15.232Z,1012.8
2016-07-28T11:39:15.239Z,1012.83
2016-07-28T11:40:15.248Z,1012.81
2016-07-28T11:41:15.449Z,1012.82
2016-07-28T11:42:15.260Z,1012.84
2016-07-28T11:43:15.270Z,1012.87
2016-07-28T11:44:17.141Z,1012.91
2016-07-28T11:45:15.329Z,1012.93
2016-07-28T11:46:15.349Z,1013
2016-07-28T11:47:15.296Z,1013.06
2016-07-28T11:48:15.444Z,1013.14
2016-07-28T11:49:15.513Z,1013.21
2016-07-28T11:50:15.317Z,1013.19
2016-07-28T11:51:15.373Z,1013.21
2016-07-28T11:52:15.334Z,1013.23
2016-07-28T11:53:15.340Z,1013.17
2016-07-28T11:54:15.350Z,1013.12
2016-07-28T11:55:15.354Z,1013.03
2016-07-28T11:56:15.362Z,1012.96
2016-07-28T11:57:15.372Z,1012.94
2016-07-28T11:58:15.379Z,1012.91
2016-07-28T12:00:15.394Z,1012.92
2016-07-28T12:01:15.404Z,1012.89
2016-07-28T12:02:15.411Z,1012.9
2016-07-28T12:03:15.419Z,1012.93
2016-07-28T12:04:15.431Z,1013
2016-07-28T12:05:15.435Z,1013.16
2016-07-28T12:06:15.442Z,1013.09
2016-07-28T12:07:15.452Z,1013.07
2016-07-28T12:08:15.461Z,1012.96
2016-07-28T12:09:15.468Z,1012.98
2016-07-28T12:10:15.478Z,1012.97
2016-07-28T12:11:15.489Z,1012.91
2016-07-28T12:12:15.496Z,1012.88
2016-07-28T12:13:15.507Z,1012.83
2016-07-28T12:14:15.511Z,1012.9
2016-07-28T12:15:16.725Z,1013
2016-07-28T12:16:15.528Z,1012.92
2016-07-28T12:17:15.537Z,1012.97
2016-07-28T12:18:15.550Z,1013.02
2016-07-28T12:19:15.558Z,1012.96
2016-07-28T12:20:15.665Z,1012.86
2016-07-28T12:21:15.575Z,1012.84
2016-07-28T12:22:15.582Z,1012.72
2016-07-28T12:23:15.593Z,1012.72
2016-07-28T12:24:16.651Z,1012.8
2016-07-28T12:25:15.610Z,1012.87
2016-07-28T12:27:15.630Z,1013.03